Time;durP1;ratioP1;P1;durP2;ratioP2;P2;SDS_P1;SDS_P2;PMS_P1;PMS_P2;Temp;Humidity;BMP_temperature;BMP_pressure;BME280_temperature;BME280_humidity;BME280_pressure;Samples;Min_cycle;Max_cycle;Signal;HPM_P1;HPM_P2
2022/10/06 00:00:58;;;;;;;11.52;1.88;;;12.60;99.90;;;;;;5089693;28;20768;-72
2022/10/06 00:03:24;;;;;;;13.07;3.38;;;12.60;99.90;;;;;;5089592;28;20164;-73
2022/10/06 00:05:50;;;;;;;12.98;2.20;;;12.60;99.90;;;;;;5087539;28;20064;-73
2022/10/06 00:08:17;;;;;;;11.23;1.85;;;12.50;99.90;;;;;;5088865;28;20035;-72
2022/10/06 00:10:43;;;;;;;11.48;1.55;;;12.50;99.90;;;;;;5078489;28;20527;-75
2022/10/06 00:13:09;;;;;;;9.98;2.33;;;12.50;99.90;;;;;;5072267;28;20032;-72
2022/10/06 00:15:35;;;;;;;14.32;1.70;;;12.50;99.90;;;;;;5077177;28;20033;-72
2022/10/06 00:18:01;;;;;;;9.32;1.88;;;12.50;99.90;;;;;;5069485;28;20040;-73
2022/10/06 00:20:27;;;;;;;14.48;2.50;;;12.50;99.90;;;;;;5051169;28;20044;-74
2022/10/06 00:22:55;;;;;;;12.98;2.03;;;12.50;99.90;;;;;;5073036;28;20036;-73
2022/10/06 00:25:22;;;;;;;15.95;2.00;;;12.50;99.90;;;;;;5069425;28;20092;-73
2022/10/06 00:27:51;;;;;;;11.30;1.55;;;12.40;99.90;;;;;;5069253;28;20040;-74
2022/10/06 00:30:25;;;;;;;14.38;1.85;;;12.40;99.90;;;;;;5069573;28;20469;-73
2022/10/06 00:33:01;;;;;;;9.75;1.75;;;12.40;99.90;;;;;;5069214;28;20173;-72
2022/10/06 00:35:33;;;;;;;12.27;2.55;;;12.30;99.90;;;;;;5069359;28;20044;-73
2022/10/06 00:38:02;;;;;;;15.57;2.08;;;12.30;99.90;;;;;;5069162;28;20033;-73
2022/10/06 00:40:29;;;;;;;8.25;1.50;;;12.30;99.90;;;;;;5068371;28;20032;-72
2022/10/06 00:43:00;;;;;;;13.90;2.03;;;12.30;99.90;;;;;;5071614;28;20029;-73
2022/10/06 00:45:42;;;;;;;9.10;1.60;;;12.20;99.90;;;;;;5069022;28;20028;-72
2022/10/06 00:48:17;;;;;;;13.48;1.67;;;12.20;99.90;;;;;;5068364;28;20542;-73
2022/10/06 00:50:44;;;;;;;10.85;1.75;;;12.20;99.90;;;;;;5068200;28;20060;-72
2022/10/06 00:53:10;;;;;;;13.98;1.73;;;12.20;99.90;;;;;;5070950;28;20066;-74
2022/10/06 00:55:36;;;;;;;10.95;2.00;;;12.20;99.90;;;;;;5046195;28;20475;-73
2022/10/06 00:58:03;;;;;;;13.00;1.98;;;12.10;99.90;;;;;;5066650;28;20119;-73
2022/10/06 01:00:29;;;;;;;12.18;2.17;;;12.10;99.90;;;;;;5068090;28;20059;-71
2022/10/06 01:03:03;;;;;;;13.45;2.17;;;12.10;99.90;;;;;;5050482;28;20056;-73
2022/10/06 01:05:33;;;;;;;12.70;1.60;;;12.10;99.90;;;;;;5067352;28;20033;-72
2022/10/06 01:08:00;;;;;;;14.63;2.00;;;12.10;99.90;;;;;;5067612;28;20075;-73
2022/10/06 01:10:25;;;;;;;12.02;1.85;;;12.00;99.90;;;;;;5050510;28;20864;-73
2022/10/06 01:12:51;;;;;;;13.13;1.95;;;12.00;99.90;;;;;;5079186;28;20124;-70
2022/10/06 01:15:18;;;;;;;11.32;1.90;;;12.00;99.90;;;;;;5068035;28;20039;-71
2022/10/06 01:18:06;;;;;;;15.70;1.90;;;12.00;99.90;;;;;;5079760;28;20021;-73
2022/10/06 01:20:33;;;;;;;13.38;2.00;;;11.90;99.90;;;;;;5073616;28;20039;-73
2022/10/06 01:23:05;;;;;;;14.73;1.98;;;11.90;99.90;;;;;;5067998;28;20036;-73
2022/10/06 01:25:33;;;;;;;16.98;2.15;;;11.90;99.90;;;;;;5074263;28;20036;-72
2022/10/06 01:28:01;;;;;;;13.93;2.38;;;11.90;99.90;;;;;;5067866;28;20029;-73
2022/10/06 01:30:45;;;;;;;14.60;2.10;;;11.90;99.90;;;;;;5071717;28;20039;-72
2022/10/06 01:33:10;;;;;;;11.88;2.15;;;11.80;99.90;;;;;;5070647;28;20730;-72
2022/10/06 01:35:36;;;;;;;10.15;1.42;;;11.80;99.90;;;;;;5087635;28;20028;-72
2022/10/06 01:38:02;;;;;;;10.68;2.05;;;11.80;99.90;;;;;;5075085;28;20032;-71
2022/10/06 01:40:28;;;;;;;15.55;2.08;;;11.80;99.90;;;;;;5049810;28;20411;-73
2022/10/06 01:42:56;;;;;;;15.85;2.10;;;11.80;99.90;;;;;;5067878;28;20024;-71
2022/10/06 01:45:22;;;;;;;12.25;2.20;;;11.70;99.90;;;;;;5075395;28;20028;-72
2022/10/06 01:47:48;;;;;;;12.60;1.90;;;11.70;99.90;;;;;;5087524;28;20055;-70
2022/10/06 01:50:14;;;;;;;10.25;1.70;;;11.70;99.90;;;;;;5069664;28;20050;-69
2022/10/06 01:52:39;;;;;;;12.13;1.90;;;11.70;99.90;;;;;;5087929;28;20108;-72
2022/10/06 01:55:06;;;;;;;11.48;2.00;;;11.60;99.90;;;;;;5079108;28;20116;-70
2022/10/06 01:57:37;;;;;;;11.70;1.70;;;11.60;99.90;;;;;;5079868;28;20040;-69
2022/10/06 02:00:03;;;;;;;15.52;2.28;;;11.60;99.90;;;;;;5055690;28;20047;-69
2022/10/06 02:02:30;;;;;;;14.38;2.47;;;11.60;99.90;;;;;;5069575;28;20036;-70
2022/10/06 02:04:56;;;;;;;11.50;2.08;;;11.60;99.90;;;;;;5068102;28;20105;-71
2022/10/06 02:07:21;;;;;;;15.27;2.05;;;11.50;99.90;;;;;;5086846;28;20478;-70
2022/10/06 02:09:47;;;;;;;13.68;1.50;;;11.50;99.90;;;;;;5092050;28;20044;-72
2022/10/06 02:12:12;;;;;;;11.65;1.73;;;11.50;99.90;;;;;;5079067;28;20082;-70
2022/10/06 02:14:38;;;;;;;14.65;2.13;;;11.50;99.90;;;;;;5076564;28;20044;-71
2022/10/06 02:17:04;;;;;;;12.63;2.00;;;11.50;99.90;;;;;;5091839;28;20584;-70
2022/10/06 02:19:30;;;;;;;12.98;1.90;;;11.50;99.90;;;;;;5077782;28;20406;-71
2022/10/06 02:21:57;;;;;;;14.07;1.80;;;11.40;99.90;;;;;;5058620;28;20032;-71
2022/10/06 02:24:22;;;;;;;11.30;1.88;;;11.40;99.90;;;;;;5069428;28;20076;-69
2022/10/06 02:26:48;;;;;;;12.20;1.77;;;11.40;99.90;;;;;;5075806;28;20064;-72
2022/10/06 02:29:14;;;;;;;11.70;1.90;;;11.40;99.90;;;;;;5072319;28;20036;-71
2022/10/06 02:31:40;;;;;;;14.13;1.73;;;11.40;99.90;;;;;;5084792;28;20501;-70
2022/10/06 02:34:05;;;;;;;10.35;1.80;;;11.40;99.90;;;;;;5076342;28;20404;-70
2022/10/06 02:36:31;;;;;;;13.98;1.92;;;11.30;99.90;;;;;;5070882;28;20086;-71
2022/10/06 02:38:57;;;;;;;14.18;1.90;;;11.40;99.90;;;;;;5051997;28;20028;-71
2022/10/06 02:41:24;;;;;;;11.88;1.80;;;11.30;99.90;;;;;;5071803;28;20371;-71
2022/10/06 02:43:50;;;;;;;11.23;1.83;;;11.30;99.90;;;;;;5070274;28;20527;-69
2022/10/06 02:46:16;;;;;;;12.93;1.95;;;11.30;99.90;;;;;;5076259;28;20093;-71
2022/10/06 02:48:42;;;;;;;9.40;1.50;;;11.20;99.90;;;;;;5070626;28;20048;-72
2022/10/06 02:51:11;;;;;;;14.85;2.05;;;11.20;99.90;;;;;;5075224;28;20445;-72
2022/10/06 02:53:37;;;;;;;16.45;2.50;;;11.20;99.90;;;;;;5057822;28;20043;-70
2022/10/06 02:56:09;;;;;;;11.35;1.40;;;11.10;99.90;;;;;;5078292;28;20024;-71
2022/10/06 02:58:36;;;;;;;11.93;2.15;;;11.10;99.90;;;;;;5077545;28;20139;-69
2022/10/06 03:01:04;;;;;;;13.88;1.70;;;11.10;99.90;;;;;;5070293;28;20032;-71
2022/10/06 03:03:31;;;;;;;9.55;1.52;;;11.10;99.90;;;;;;5069312;28;20613;-70
2022/10/06 03:06:20;;;;;;;13.20;1.98;;;11.00;99.90;;;;;;5069152;28;20027;-71
2022/10/06 03:08:48;;;;;;;11.63;2.17;;;11.00;99.90;;;;;;5067171;28;20053;-71
2022/10/06 03:11:14;;;;;;;9.90;1.60;;;11.00;99.90;;;;;;5079416;28;20561;-71
2022/10/06 03:13:40;;;;;;;12.77;2.35;;;11.00;99.90;;;;;;5070486;28;20041;-72
2022/10/06 03:16:18;;;;;;;13.02;2.17;;;11.00;99.90;;;;;;5070255;28;20034;-71
2022/10/06 03:18:48;;;;;;;15.55;1.88;;;11.00;99.90;;;;;;5074110;28;20482;-69
2022/10/06 03:21:15;;;;;;;11.88;1.73;;;10.90;99.90;;;;;;5069450;28;20479;-71
2022/10/06 03:23:45;;;;;;;9.20;1.50;;;10.90;99.90;;;;;;5069560;28;20037;-70
2022/10/06 03:26:11;;;;;;;9.70;2.05;;;10.90;99.90;;;;;;5083240;28;20344;-71
2022/10/06 03:28:38;;;;;;;11.77;1.80;;;10.90;99.90;;;;;;5072277;28;20039;-71
2022/10/06 03:31:05;;;;;;;12.55;1.65;;;10.90;99.90;;;;;;5059423;28;20040;-69
2022/10/06 03:33:31;;;;;;;12.05;1.80;;;10.90;99.90;;;;;;5070878;28;20182;-71
2022/10/06 03:36:09;;;;;;;12.75;2.03;;;10.90;99.90;;;;;;5068646;28;20039;-71
2022/10/06 03:38:35;;;;;;;12.35;2.20;;;10.80;99.90;;;;;;5068558;28;20032;-71
2022/10/06 03:41:10;;;;;;;14.63;1.63;;;10.80;99.90;;;;;;5070958;28;20114;-72
2022/10/06 03:43:37;;;;;;;12.20;2.03;;;10.80;99.90;;;;;;5069476;28;20036;-71
2022/10/06 03:46:04;;;;;;;10.73;1.75;;;10.70;99.90;;;;;;5070213;28;20056;-71
2022/10/06 03:48:34;;;;;;;10.95;1.75;;;10.70;99.90;;;;;;5070086;28;20036;-71
2022/10/06 03:51:05;;;;;;;15.93;1.98;;;10.70;99.90;;;;;;5070227;28;20032;-71
2022/10/06 03:53:32;;;;;;;9.77;1.90;;;10.70;99.90;;;;;;5070109;28;20047;-72
2022/10/06 03:56:11;;;;;;;11.98;1.70;;;10.70;99.90;;;;;;5069824;28;20488;-71
2022/10/06 03:58:39;;;;;;;12.45;2.00;;;10.70;99.90;;;;;;5070284;28;20037;-71
2022/10/06 04:01:11;;;;;;;8.30;1.80;;;10.80;99.90;;;;;;5069826;28;20032;-71
2022/10/06 04:03:37;;;;;;;11.02;1.83;;;10.80;99.90;;;;;;5069698;28;20032;-71
2022/10/06 04:06:06;;;;;;;10.68;1.50;;;10.80;99.90;;;;;;5069300;28;20105;-71
2022/10/06 04:08:34;;;;;;;14.15;1.75;;;10.80;99.90;;;;;;5069617;28;20032;-71
2022/10/06 04:11:19;;;;;;;11.43;1.60;;;10.80;99.90;;;;;;5083836;28;20410;-72
2022/10/06 04:13:46;;;;;;;12.30;1.98;;;10.80;99.90;;;;;;5087117;28;20035;-72
2022/10/06 04:16:16;;;;;;;10.02;1.55;;;10.80;99.90;;;;;;5069828;28;20398;-71
2022/10/06 04:18:43;;;;;;;9.13;2.13;;;10.70;99.90;;;;;;5082949;28;20028;-72
2022/10/06 04:21:10;;;;;;;12.40;1.40;;;10.70;99.90;;;;;;5089188;28;20031;-72
2022/10/06 04:23:37;;;;;;;8.77;1.55;;;10.70;99.90;;;;;;5087843;28;20040;-72
2022/10/06 04:26:08;;;;;;;9.90;1.55;;;10.70;99.90;;;;;;5084215;28;20565;-72
2022/10/06 04:28:36;;;;;;;13.35;1.70;;;10.80;99.90;;;;;;5068943;28;20047;-72
2022/10/06 04:31:03;;;;;;;11.00;1.88;;;10.80;99.90;;;;;;5045841;28;20062;-72
2022/10/06 04:33:31;;;;;;;12.85;1.73;;;10.70;99.90;;;;;;5072333;28;20032;-72
2022/10/06 04:36:02;;;;;;;13.05;1.75;;;10.70;99.90;;;;;;5068834;28;20115;-72
2022/10/06 04:38:31;;;;;;;12.82;2.53;;;10.70;99.90;;;;;;5069380;28;20482;-72
2022/10/06 04:41:03;;;;;;;11.73;1.33;;;10.70;99.90;;;;;;5068803;28;20032;-72
2022/10/06 04:43:29;;;;;;;13.20;1.70;;;10.70;99.90;;;;;;5069582;28;20029;-72
2022/10/06 04:45:56;;;;;;;17.17;1.80;;;10.70;99.90;;;;;;5045769;28;20116;-73
2022/10/06 04:48:22;;;;;;;10.60;1.90;;;10.70;99.90;;;;;;5089083;28;20559;-73
2022/10/06 04:51:00;;;;;;;13.30;1.70;;;10.60;99.90;;;;;;5077316;28;20115;-72
2022/10/06 04:53:27;;;;;;;11.63;1.75;;;10.60;99.90;;;;;;5069855;28;20971;-72
2022/10/06 04:56:00;;;;;;;13.07;1.80;;;10.60;99.90;;;;;;5061523;28;20117;-72
2022/10/06 04:58:29;;;;;;;10.90;1.40;;;10.60;99.90;;;;;;5072189;28;20043;-72
2022/10/06 05:00:55;;;;;;;11.52;1.50;;;10.60;99.90;;;;;;5084294;28;20036;-72
2022/10/06 05:03:20;;;;;;;12.30;1.70;;;10.60;99.90;;;;;;5067319;28;20048;-71
2022/10/06 05:05:46;;;;;;;8.20;1.50;;;10.60;99.90;;;;;;5069615;28;20036;-72
2022/10/06 05:08:11;;;;;;;15.38;1.80;;;10.60;99.90;;;;;;5073034;28;20028;-72
2022/10/06 05:10:37;;;;;;;12.55;2.05;;;10.50;99.90;;;;;;5063643;28;20064;-70
2022/10/06 05:13:04;;;;;;;13.80;2.00;;;10.50;99.90;;;;;;5068129;28;20403;-73
2022/10/06 05:15:30;;;;;;;12.18;1.85;;;10.50;99.90;;;;;;5069377;28;20041;-69
2022/10/06 05:17:56;;;;;;;13.13;2.05;;;10.50;99.90;;;;;;5067799;28;20406;-72
2022/10/06 05:20:22;;;;;;;10.93;1.83;;;10.50;99.90;;;;;;5067757;28;20028;-72
2022/10/06 05:22:48;;;;;;;10.07;1.52;;;10.50;99.90;;;;;;5068302;28;20032;-72
2022/10/06 05:25:14;;;;;;;11.80;1.95;;;10.50;99.90;;;;;;5069261;28;20040;-71
2022/10/06 05:27:40;;;;;;;16.80;2.22;;;10.40;99.90;;;;;;5068081;28;20032;-72
2022/10/06 05:30:06;;;;;;;17.23;3.03;;;10.40;99.90;;;;;;5068070;28;20111;-72
2022/10/06 05:32:32;;;;;;;17.85;3.70;;;10.40;99.90;;;;;;5066797;28;20036;-71
2022/10/06 05:34:57;;;;;;;17.15;3.33;;;10.40;99.90;;;;;;5081214;28;20047;-72
2022/10/06 05:37:24;;;;;;;15.38;2.92;;;10.40;99.90;;;;;;5065724;28;20029;-72
2022/10/06 05:39:49;;;;;;;13.18;2.90;;;10.40;99.90;;;;;;5049394;28;20067;-73
2022/10/06 05:42:15;;;;;;;13.18;2.63;;;10.30;99.90;;;;;;5067292;28;20056;-72
2022/10/06 05:44:41;;;;;;;15.32;2.38;;;10.40;99.90;;;;;;5067277;28;20139;-72
2022/10/06 05:47:06;;;;;;;16.10;2.25;;;10.40;99.90;;;;;;5052956;28;20131;-72
2022/10/06 05:49:32;;;;;;;13.82;2.28;;;10.30;99.90;;;;;;5067667;28;20433;-72
2022/10/06 05:51:58;;;;;;;11.98;2.20;;;10.30;99.90;;;;;;5068279;28;20543;-72
2022/10/06 05:54:23;;;;;;;11.27;1.98;;;10.30;99.90;;;;;;5051875;28;20397;-71
2022/10/06 05:56:49;;;;;;;10.57;2.00;;;10.30;99.90;;;;;;5067908;28;20039;-72
2022/10/06 05:59:15;;;;;;;12.55;1.92;;;10.40;99.90;;;;;;5049705;28;20448;-73
2022/10/06 06:01:42;;;;;;;15.30;2.60;;;10.30;99.90;;;;;;5060733;28;20115;-72
2022/10/06 06:04:10;;;;;;;13.63;2.40;;;10.30;99.90;;;;;;5067299;28;20113;-72
2022/10/06 06:06:44;;;;;;;11.07;1.52;;;10.30;99.90;;;;;;5065647;28;20406;-70
2022/10/06 06:09:16;;;;;;;11.82;1.88;;;10.30;99.90;;;;;;5062971;28;20406;-71
2022/10/06 06:11:45;;;;;;;10.63;1.70;;;10.30;99.90;;;;;;5040212;28;20458;-72
2022/10/06 06:14:14;;;;;;;12.95;2.33;;;10.30;99.90;;;;;;5067621;28;20074;-73
2022/10/06 06:16:40;;;;;;;12.18;1.63;;;10.30;99.90;;;;;;5061773;28;20477;-72
2022/10/06 06:19:07;;;;;;;11.45;1.90;;;10.40;99.90;;;;;;5052663;28;20029;-72
2022/10/06 06:21:33;;;;;;;8.98;1.52;;;10.50;99.90;;;;;;5079157;28;20429;-72
2022/10/06 06:23:59;;;;;;;10.90;1.60;;;10.50;99.90;;;;;;5077788;28;20541;-72
2022/10/06 06:26:30;;;;;;;9.15;1.88;;;10.60;99.90;;;;;;5077993;28;20065;-72
2022/10/06 06:29:05;;;;;;;14.32;2.53;;;10.60;99.90;;;;;;5067924;28;20375;-73
2022/10/06 06:31:36;;;;;;;12.38;1.98;;;10.60;99.90;;;;;;5066947;28;20046;-71
2022/10/06 06:34:05;;;;;;;14.23;2.35;;;10.60;99.90;;;;;;5052516;28;20119;-70
2022/10/06 06:36:34;;;;;;;13.07;1.88;;;10.60;99.90;;;;;;5057980;28;20128;-71
2022/10/06 06:39:01;;;;;;;16.07;2.57;;;10.60;99.90;;;;;;5049454;28;20036;-71
2022/10/06 06:41:28;;;;;;;12.63;2.15;;;10.60;99.90;;;;;;5045361;28;20039;-70
2022/10/06 06:43:55;;;;;;;15.23;2.40;;;10.60;99.90;;;;;;5048228;28;20035;-73
2022/10/06 06:46:26;;;;;;;9.98;2.50;;;10.60;99.90;;;;;;5064637;28;20500;-71
2022/10/06 06:48:53;;;;;;;11.57;2.10;;;10.60;99.90;;;;;;5072987;28;20035;-72
2022/10/06 06:51:22;;;;;;;16.75;2.28;;;10.60;99.90;;;;;;5043566;28;20078;-72
2022/10/06 06:53:49;;;;;;;13.25;2.67;;;10.70;99.90;;;;;;5062348;28;20157;-72
2022/10/06 06:56:16;;;;;;;15.27;2.38;;;10.70;99.90;;;;;;5058647;28;20040;-72
2022/10/06 06:58:49;;;;;;;12.60;1.88;;;10.70;99.90;;;;;;5068977;28;20040;-71
2022/10/06 07:01:17;;;;;;;12.02;2.03;;;10.80;99.90;;;;;;5070546;28;20040;-72
2022/10/06 07:03:51;;;;;;;11.52;2.20;;;10.90;99.90;;;;;;5051712;28;20040;-72
2022/10/06 07:06:17;;;;;;;8.30;1.45;;;10.90;99.90;;;;;;5046246;28;20029;-71
2022/10/06 07:08:47;;;;;;;11.65;2.00;;;11.00;99.90;;;;;;5063689;28;20371;-72
2022/10/06 07:11:33;;;;;;;9.48;1.88;;;11.10;99.90;;;;;;5072755;28;21064;-72
2022/10/06 07:14:01;;;;;;;8.88;1.63;;;11.20;99.90;;;;;;5048620;28;20028;-71
2022/10/06 07:27:41;;;;;;;9.05;1.70;;;11.70;99.90;;;;;;5052564;28;20102;-72
2022/10/06 07:30:11;;;;;;;9.45;1.63;;;11.90;99.90;;;;;;5072210;28;20086;-72
2022/10/06 07:32:37;;;;;;;11.73;2.10;;;12.00;99.90;;;;;;5052196;28;20040;-72
2022/10/06 07:35:05;;;;;;;16.92;2.17;;;12.10;99.90;;;;;;5071387;28;20089;-70
2022/10/06 07:37:33;;;;;;;12.57;2.22;;;12.30;99.90;;;;;;5089886;28;20035;-71
2022/10/06 07:40:00;;;;;;;11.95;1.70;;;12.40;99.90;;;;;;5076047;28;20048;-72
2022/10/06 07:42:25;;;;;;;9.00;1.55;;;12.50;99.90;;;;;;5071129;28;20135;-72
2022/10/06 07:47:38;;;;;;;13.68;1.90;;;12.80;99.90;;;;;;5069902;28;20094;-72
2022/10/06 07:50:05;;;;;;;13.45;1.80;;;12.90;99.90;;;;;;5076843;28;20032;-73
2022/10/06 07:52:31;;;;;;;13.20;2.00;;;13.00;99.90;;;;;;5069193;28;20046;-73
2022/10/06 07:54:57;;;;;;;12.48;1.85;;;13.00;99.90;;;;;;5070074;28;20120;-70
2022/10/06 07:57:29;;;;;;;12.15;1.83;;;13.10;99.90;;;;;;5062736;28;20041;-71
2022/10/06 07:59:54;;;;;;;11.77;2.00;;;13.10;99.90;;;;;;5051728;28;20649;-71
2022/10/06 08:02:23;;;;;;;11.85;2.20;;;13.20;99.90;;;;;;5063559;28;20043;-71
2022/10/06 08:04:48;;;;;;;15.25;1.75;;;13.30;99.90;;;;;;5054535;28;20118;-71
2022/10/06 08:07:14;;;;;;;11.05;1.92;;;13.30;99.90;;;;;;5059700;28;20116;-73
2022/10/06 08:09:39;;;;;;;11.57;1.70;;;13.50;99.90;;;;;;5055812;28;20065;-72
2022/10/06 08:12:31;;;;;;;11.68;1.92;;;13.50;99.90;;;;;;5063545;28;20115;-70
2022/10/06 08:14:51;;;;;;;13.55;2.03;;;13.60;99.90;;;;;;5068981;28;20707;-71
2022/10/06 08:17:16;;;;;;;11.55;2.13;;;13.80;99.90;;;;;;5052576;28;20036;-71
2022/10/06 08:19:42;;;;;;;11.75;2.10;;;13.80;99.90;;;;;;5066322;28;20062;-70
2022/10/06 08:22:11;;;;;;;18.00;2.90;;;14.00;99.90;;;;;;5067141;28;20082;-70
2022/10/06 08:24:36;;;;;;;10.38;2.30;;;14.00;99.90;;;;;;5066545;28;20028;-71
2022/10/06 08:27:02;;;;;;;9.70;1.60;;;14.20;99.90;;;;;;5051477;28;20642;-71
2022/10/06 08:29:28;;;;;;;13.77;1.83;;;14.30;99.90;;;;;;5049111;28;20033;-70
2022/10/06 08:31:54;;;;;;;12.40;1.80;;;14.40;99.90;;;;;;5048900;28;20033;-70
2022/10/06 08:34:20;;;;;;;9.90;2.15;;;14.50;99.90;;;;;;5040380;28;20025;-69
2022/10/06 08:36:46;;;;;;;11.65;1.85;;;14.50;99.90;;;;;;5057374;28;20032;-71
2022/10/06 08:39:11;;;;;;;14.30;1.88;;;14.60;99.90;;;;;;5040686;28;20040;-71
2022/10/06 08:41:48;;;;;;;14.30;2.40;;;14.70;99.90;;;;;;5068055;28;20609;-71
2022/10/06 08:44:18;;;;;;;11.90;1.70;;;14.80;99.90;;;;;;5068571;28;20109;-71
2022/10/06 08:47:10;;;;;;;12.25;2.05;;;14.80;99.90;;;;;;5069012;28;20029;-71
2022/10/06 08:49:47;;;;;;;11.75;2.30;;;14.90;99.90;;;;;;5067768;28;20115;-70
2022/10/06 08:52:19;;;;;;;11.52;1.95;;;15.00;99.90;;;;;;5065711;28;20068;-70
2022/10/06 08:55:03;;;;;;;14.15;2.22;;;15.00;99.60;;;;;;5048395;28;20036;-70
2022/10/06 08:57:37;;;;;;;10.00;1.63;;;15.10;99.90;;;;;;5058085;28;20467;-70
2022/10/06 09:00:10;;;;;;;11.50;1.60;;;15.30;99.90;;;;;;5053320;28;20116;-71
2022/10/06 09:02:40;;;;;;;11.48;2.05;;;15.40;98.70;;;;;;5050632;28;20410;-71
2022/10/06 09:05:07;;;;;;;14.20;1.90;;;15.50;97.00;;;;;;5044732;28;20040;-68
2022/10/06 09:07:44;;;;;;;16.45;2.10;;;15.60;96.90;;;;;;5038853;28;20029;-70
2022/10/06 09:10:48;;;;;;;14.43;2.25;;;15.70;96.90;;;;;;5056892;28;20064;-69
2022/10/06 09:13:29;;;;;;;11.77;2.53;;;15.90;95.70;;;;;;5048044;28;20872;-69
2022/10/06 09:16:00;;;;;;;15.23;2.25;;;15.90;94.90;;;;;;5047811;28;20391;-71
2022/10/06 09:18:50;;;;;;;11.73;2.00;;;16.00;95.80;;;;;;5049224;28;20037;-71
2022/10/06 09:21:18;;;;;;;12.70;2.20;;;16.20;95.50;;;;;;5057782;28;20032;-71
2022/10/06 09:23:52;;;;;;;10.38;1.95;;;16.20;92.10;;;;;;5041514;28;20037;-72
2022/10/06 09:26:29;;;;;;;12.98;2.03;;;16.20;91.70;;;;;;5046186;28;20029;-72
2022/10/06 09:28:56;;;;;;;12.90;2.67;;;16.30;92.50;;;;;;5054740;28;20029;-72
2022/10/06 09:31:23;;;;;;;13.45;2.53;;;16.40;91.80;;;;;;5040754;28;20506;-71
2022/10/06 09:33:58;;;;;;;14.98;2.35;;;16.40;91.60;;;;;;5058108;28;20064;-72
2022/10/06 09:36:24;;;;;;;13.65;2.20;;;16.60;91.60;;;;;;5031747;28;20032;-72
2022/10/06 09:38:52;;;;;;;15.60;2.45;;;16.70;91.60;;;;;;5063528;28;20052;-71
2022/10/06 09:41:48;;;;;;;13.63;2.05;;;16.80;90.30;;;;;;5055098;28;20028;-71
2022/10/06 09:44:26;;;;;;;13.48;2.00;;;16.90;88.90;;;;;;5040852;28;20487;-71
2022/10/06 09:46:52;;;;;;;12.50;2.10;;;17.10;89.70;;;;;;5048969;28;20033;-72
2022/10/06 09:49:19;;;;;;;16.05;2.40;;;17.10;88.30;;;;;;5058234;28;20029;-71
2022/10/06 09:51:59;;;;;;;10.90;2.50;;;17.10;87.70;;;;;;5031604;28;20040;-72
2022/10/06 09:54:25;;;;;;;;;;;17.30;85.80;;;;;;5054149;28;20044;-74
2022/10/06 09:56:52;;;;;;;9.48;2.10;;;17.40;85.90;;;;;;5046838;28;19919;-72
2022/10/06 09:59:24;;;;;;;11.40;2.42;;;17.40;85.00;;;;;;5052649;28;20064;-71
2022/10/06 10:01:52;;;;;;;15.80;3.22;;;17.40;81.90;;;;;;5049236;28;20499;-71
2022/10/06 10:04:26;;;;;;;13.18;2.55;;;17.40;83.80;;;;;;5051703;28;20060;-72
2022/10/06 10:06:52;;;;;;;15.77;2.00;;;17.50;82.40;;;;;;5047115;28;20033;-71
2022/10/06 10:09:27;;;;;;;12.55;2.35;;;17.40;80.30;;;;;;5059475;28;20061;-74
2022/10/06 10:12:29;;;;;;;13.82;2.28;;;17.40;82.90;;;;;;5056822;28;20041;-70
2022/10/06 10:15:00;;;;;;;11.65;2.17;;;17.50;83.60;;;;;;5050840;28;20032;-71
2022/10/06 10:17:36;;;;;;;11.25;2.22;;;17.60;83.80;;;;;;5047116;28;20028;-70
2022/10/06 10:20:05;;;;;;;16.00;2.55;;;17.80;87.30;;;;;;5049212;28;20043;-72
2022/10/06 10:22:37;;;;;;;17.15;2.55;;;17.80;82.60;;;;;;5057788;28;20548;-72
2022/10/06 10:25:09;;;;;;;14.25;2.50;;;17.80;83.60;;;;;;5061373;28;20119;-75
2022/10/06 10:27:58;;;;;;;13.40;2.40;;;18.00;79.50;;;;;;5050542;28;20045;-73
2022/10/06 10:30:27;;;;;;;14.85;2.42;;;18.70;74.30;;;;;;5057015;28;20555;-75
2022/10/06 10:33:11;;;;;;;11.80;2.17;;;20.90;67.10;;;;;;5059267;28;20033;-72
2022/10/06 10:35:49;;;;;;;12.95;2.63;;;21.60;63.00;;;;;;5053832;28;20673;-72
2022/10/06 10:38:20;;;;;;;11.75;2.10;;;21.40;61.40;;;;;;5048037;28;20449;-71
2022/10/06 10:40:50;;;;;;;13.75;2.50;;;21.20;60.00;;;;;;5036483;28;20041;-70
2022/10/06 10:43:31;;;;;;;11.18;2.28;;;22.20;58.10;;;;;;5049131;28;20506;-71
2022/10/06 10:46:33;;;;;;;12.75;2.00;;;21.20;57.10;;;;;;5044500;28;20095;-75
2022/10/06 10:49:16;;;;;;;14.80;2.38;;;19.90;60.10;;;;;;5056600;28;20029;-73
2022/10/06 10:52:01;;;;;;;12.45;1.88;;;19.30;62.40;;;;;;5052303;28;20490;-74
2022/10/06 10:54:32;;;;;;;11.07;2.15;;;18.80;63.40;;;;;;5052803;28;20032;-74
2022/10/06 10:56:58;;;;;;;10.52;2.00;;;18.50;66.40;;;;;;5056152;28;20039;-72
2022/10/06 10:59:41;;;;;;;13.60;2.20;;;18.40;66.30;;;;;;5055916;28;20033;-71
2022/10/06 11:02:17;;;;;;;10.73;2.13;;;18.20;67.70;;;;;;5044015;28;20599;-75
2022/10/06 11:04:48;;;;;;;14.70;2.33;;;18.10;67.30;;;;;;5055394;28;20479;-73
2022/10/06 11:07:22;;;;;;;12.95;1.95;;;18.10;67.10;;;;;;5056116;28;20525;-72
2022/10/06 11:10:03;;;;;;;13.52;2.33;;;18.00;67.10;;;;;;5058325;28;20045;-77
2022/10/06 11:12:40;;;;;;;14.38;2.33;;;18.00;67.30;;;;;;5052918;28;20032;-72
2022/10/06 11:15:37;;;;;;;14.68;2.38;;;18.00;69.60;;;;;;5054013;28;20036;-72
2022/10/06 11:18:22;;;;;;;17.38;2.58;;;18.50;69.60;;;;;;5043633;28;20119;-73
2022/10/06 11:20:56;;;;;;;9.68;1.85;;;19.80;63.00;;;;;;5054410;28;20045;-73
2022/10/06 11:23:41;;;;;;;9.68;2.25;;;19.50;61.30;;;;;;5055430;28;20525;-73
2022/10/06 11:26:08;;;;;;;12.77;2.25;;;18.90;64.50;;;;;;5050535;28;20040;-73
2022/10/06 11:28:43;;;;;;;12.70;2.28;;;18.50;64.80;;;;;;5056373;28;20040;-76
2022/10/06 11:31:44;;;;;;;11.05;2.20;;;18.40;64.80;;;;;;5060829;28;20182;-75
2022/10/06 11:34:10;;;;;;;11.77;2.03;;;18.10;65.10;;;;;;5057803;28;20037;-70
2022/10/06 11:37:12;;;;;;;12.02;2.00;;;18.10;65.80;;;;;;5050170;28;20501;-73
2022/10/06 11:39:51;;;;;;;13.10;2.25;;;18.10;65.80;;;;;;5058709;28;20031;-76
2022/10/06 11:42:36;;;;;;;12.93;2.20;;;18.10;66.20;;;;;;5053992;28;20103;-70
2022/10/06 11:45:14;;;;;;;12.63;2.22;;;18.00;68.00;;;;;;5056330;28;20043;-75
2022/10/06 11:48:09;;;;;;;12.45;2.45;;;17.90;67.00;;;;;;5058296;28;20111;-74
2022/10/06 11:50:47;;;;;;;13.95;2.58;;;17.90;69.70;;;;;;5050161;28;20454;-73
2022/10/06 11:53:25;;;;;;;13.73;2.10;;;18.00;70.90;;;;;;5055710;28;20039;-78
2022/10/06 11:56:14;;;;;;;17.00;2.75;;;18.00;71.50;;;;;;5057030;28;20040;-73
2022/10/06 11:58:54;;;;;;;15.88;2.50;;;18.00;72.30;;;;;;4998890;28;20176;-73
2022/10/06 12:01:32;;;;;;;12.32;2.45;;;18.10;72.30;;;;;;4986380;28;20049;-73
2022/10/06 12:04:06;;;;;;;13.32;2.20;;;18.20;71.70;;;;;;4996352;28;20034;-73
2022/10/06 12:06:41;;;;;;;10.60;2.30;;;18.30;71.50;;;;;;4995558;28;20042;-70
2022/10/06 12:09:25;;;;;;;13.10;2.15;;;18.40;71.40;;;;;;4997817;28;20504;-71
2022/10/06 12:11:55;;;;;;;16.27;2.80;;;18.40;70.30;;;;;;4993192;28;20033;-70
2022/10/06 12:14:53;;;;;;;14.57;2.47;;;18.50;72.10;;;;;;4980804;28;20049;-72
2022/10/06 12:17:18;;;;;;;14.70;2.00;;;18.70;71.30;;;;;;4999006;28;20615;-70
2022/10/06 12:20:11;;;;;;;14.27;2.50;;;19.60;67.70;;;;;;5000811;28;20551;-73
2022/10/06 12:22:40;;;;;;;16.08;2.53;;;19.50;64.50;;;;;;5002876;28;20049;-71
2022/10/06 12:25:26;;;;;;;12.30;2.38;;;18.70;67.40;;;;;;5000600;28;20040;-73
2022/10/06 12:28:30;;;;;;;11.50;1.60;;;18.40;68.30;;;;;;4998052;28;20100;-73
2022/10/06 12:30:58;;;;;;;7.97;1.85;;;18.20;68.90;;;;;;4956849;28;20529;-74
2022/10/06 12:33:43;;;;;;;15.57;2.28;;;18.10;67.00;;;;;;4957998;28;20173;-71
2022/10/06 12:36:24;;;;;;;11.82;2.00;;;18.10;67.30;;;;;;4946902;28;20137;-73
2022/10/06 12:39:22;;;;;;;11.63;1.98;;;18.20;68.30;;;;;;4967273;28;20057;-73
2022/10/06 12:42:00;;;;;;;11.02;1.95;;;18.30;68.70;;;;;;4965366;28;20046;-71
2022/10/06 12:44:41;;;;;;;11.80;2.40;;;18.50;68.00;;;;;;4964417;28;20125;-71
2022/10/06 12:47:24;;;;;;;11.27;1.83;;;18.70;68.50;;;;;;4959997;28;20074;-71
2022/10/06 12:50:00;;;;;;;12.77;2.22;;;19.00;70.30;;;;;;4966334;28;20041;-71
2022/10/06 12:52:44;;;;;;;13.65;2.70;;;19.10;67.00;;;;;;4963585;28;20516;-72
2022/10/06 12:55:34;;;;;;;9.90;2.22;;;19.00;66.40;;;;;;4960739;28;20046;-71
2022/10/06 12:58:00;;;;;;;;;;;19.00;67.40;;;;;;4963677;28;20046;-71
2022/10/06 13:00:37;;;;;;;11.90;1.80;;;19.10;66.50;;;;;;4963567;28;20314;-70
2022/10/06 13:03:05;;;;;;;12.13;1.80;;;19.00;66.10;;;;;;4960844;28;20110;-71
2022/10/06 13:05:34;;;;;;;10.80;2.22;;;19.00;64.80;;;;;;5022771;28;20115;-72
2022/10/06 13:08:05;;;;;;;9.88;2.15;;;18.80;66.20;;;;;;5048179;28;20065;-72
2022/10/06 13:10:32;;;;;;;12.35;1.95;;;18.70;67.10;;;;;;5059030;28;20052;-71
2022/10/06 13:12:58;;;;;;;11.65;2.28;;;18.60;68.20;;;;;;5042118;28;20032;-72